Time;durP1;ratioP1;P1;durP2;ratioP2;P2;SDS_P1;SDS_P2;PMS_P1;PMS_P2;Temp;Humidity;BMP_temperature;BMP_pressure;BME280_temperature;BME280_humidity;BME280_pressure;Samples;Min_cycle;Max_cycle;Signal;HPM_P1;HPM_P2
2022/07/29 00:00:40;;;;;;;;;1.00;1.00;;;;;19.12;65.76;100343.28;5032391;28;45588;-74
2022/07/29 00:03:06;;;;;;;;;2.00;1.00;;;;;19.14;65.86;100353.84;5036009;28;45468;-73
2022/07/29 00:05:31;;;;;;;;;1.67;1.67;;;;;18.77;67.13;100315.28;5038314;28;46426;-73
2022/07/29 00:07:57;;;;;;;;;1.67;1.00;;;;;18.99;66.88;100346.91;5035244;28;45681;-74
2022/07/29 00:10:22;;;;;;;;;1.00;1.00;;;;;18.91;67.66;100325.78;5035828;28;45672;-74
2022/07/29 00:12:48;;;;;;;;;1.00;1.00;;;;;19.02;67.40;100347.78;5036270;28;45567;-73
2022/07/29 00:15:14;;;;;;;;;2.00;1.00;;;;;19.03;67.74;100343.34;5036278;28;45522;-73
2022/07/29 00:17:40;;;;;;;;;2.00;1.00;;;;;19.02;67.75;100342.47;5036037;28;45521;-73
2022/07/29 00:20:06;;;;;;;;;2.00;2.00;;;;;19.00;67.88;100341.59;5036543;28;45533;-72
2022/07/29 00:22:32;;;;;;;;;2.00;2.00;;;;;19.11;67.14;100335.34;5037290;28;45420;-74
2022/07/29 00:24:58;;;;;;;;;2.00;2.00;;;;;18.94;66.96;100285.16;5036223;28;45480;-73
2022/07/29 00:27:23;;;;;;;;;2.00;2.00;;;;;19.34;66.46;100321.88;5035846;28;45411;-73
2022/07/29 00:29:49;;;;;;;;;1.33;1.00;;;;;19.41;66.38;100319.16;5037924;28;45431;-73
2022/07/29 00:32:14;;;;;;;;;1.00;1.00;;;;;19.41;66.85;100316.50;5034307;28;45419;-74
2022/07/29 00:37:25;;;;;;;;;2.00;2.00;;;;;19.28;66.43;100297.22;5032636;28;45457;-74
2022/07/29 00:39:50;;;;;;;;;1.00;1.00;;;;;19.41;66.46;100315.63;5028273;28;45725;-74
2022/07/29 00:42:16;;;;;;;;;2.00;1.67;;;;;19.45;66.38;100318.22;5029991;28;45604;-74
2022/07/29 00:44:42;;;;;;;;;1.00;1.00;;;;;19.36;66.23;100301.56;5028230;28;45481;-74
2022/07/29 00:47:11;;;;;;;;;1.00;0.00;;;;;19.41;66.84;100323.59;5021510;28;45959;-73
2022/07/29 00:49:39;;;;;;;;;1.00;1.00;;;;;19.37;66.98;100316.56;5029681;28;45433;-74
2022/07/29 00:52:06;;;;;;;;;1.00;1.00;;;;;19.41;66.63;100310.34;5027997;28;45518;-74
2022/07/29 00:54:33;;;;;;;;;1.33;1.00;;;;;19.22;66.75;100284.03;5023851;28;45575;-74
2022/07/29 00:56:59;;;;;;;;;1.00;0.67;;;;;19.15;67.39;100278.81;5027351;28;45895;-74
2022/07/29 00:59:26;;;;;;;;;1.00;1.00;;;;;19.40;67.23;100313.91;5027799;28;45430;-74
2022/07/29 01:01:52;;;;;;;;;1.00;1.00;;;;;19.41;67.20;100318.28;5028593;28;45386;-74
2022/07/29 01:04:18;;;;;;;;;2.33;1.00;;;;;19.50;66.64;100322.59;5028375;28;45526;-74
2022/07/29 01:06:44;;;;;;;;;1.00;1.00;;;;;19.51;66.82;100319.94;5025562;28;45398;-74
2022/07/29 01:09:10;;;;;;;;;1.67;0.67;;;;;19.50;67.13;100315.56;5029625;28;45501;-74
2022/07/29 01:11:37;;;;;;;;;1.00;1.00;;;;;19.54;66.54;100313.75;5026307;28;45448;-74
2022/07/29 01:14:05;;;;;;;;;1.00;1.00;;;;;19.53;66.77;100310.22;5020496;28;45374;-73
2022/07/29 01:17:11;;;;;;;;;1.00;1.00;;;;;18.81;66.32;100167.97;5029819;28;46087;-73
2022/07/29 01:20:01;;;;;;;;;1.00;1.00;;;;;19.53;66.66;100302.25;5006173;28;45602;-74
2022/07/29 01:23:04;;;;;;;;;1.00;1.00;;;;;19.34;67.91;100298.94;5034467;28;45398;-75
2022/07/29 01:25:45;;;;;;;;;2.00;1.00;;;;;19.10;67.84;100277.97;5030753;28;45524;-74
2022/07/29 01:28:40;;;;;;;;;1.33;1.00;;;;;19.41;67.50;100332.41;5030343;28;46402;-74
2022/07/29 01:31:09;;;;;;;;;1.00;1.00;;;;;19.43;67.56;100308.56;5031683;28;45450;-74
2022/07/29 01:33:50;;;;;;;;;1.00;1.00;;;;;19.51;67.41;100319.94;5029316;28;45280;-74
2022/07/29 01:36:36;;;;;;;;;1.00;1.00;;;;;19.56;67.88;100318.13;5025932;28;46009;-74
2022/07/29 01:39:16;;;;;;;;;1.00;1.00;;;;;19.59;67.04;100311.91;5025300;28;46079;-74
2022/07/29 01:41:58;;;;;;;;;1.00;1.00;;;;;19.55;67.30;100297.81;5038304;28;45382;-74
2022/07/29 01:44:32;;;;;;;;;1.00;1.00;;;;;19.49;67.93;100297.88;5038045;28;45389;-74
2022/07/29 01:47:05;;;;;;;;;0.67;0.67;;;;;19.44;67.59;100297.94;5023445;28;45331;-73
2022/07/29 01:49:36;;;;;;;;;2.00;2.00;;;;;19.34;67.95;100290.09;5018056;28;45268;-74
2022/07/29 01:52:09;;;;;;;;;0.67;0.67;;;;;19.45;68.18;100309.41;5018228;28;45406;-74
2022/07/29 01:54:45;;;;;;;;;1.00;1.00;;;;;19.21;67.82;100284.06;5018175;28;45335;-74
2022/07/29 01:57:18;;;;;;;;;1.00;1.00;;;;;19.47;68.46;100312.94;5018563;28;45485;-74
2022/07/29 01:59:46;;;;;;;;;1.00;1.00;;;;;19.47;68.82;100308.50;5017794;28;45307;-74
2022/07/29 02:02:15;;;;;;;;;1.00;1.00;;;;;19.42;68.64;100289.13;5017732;28;45393;-74
2022/07/29 02:04:42;;;;;;;;;1.67;1.00;;;;;19.54;68.02;100322.56;5022539;28;45469;-74
2022/07/29 02:07:13;;;;;;;;;1.00;1.00;;;;;19.59;68.18;100328.69;5017809;28;45427;-74
2022/07/29 02:09:41;;;;;;;;;2.00;1.00;;;;;19.53;69.01;100328.75;5017106;28;45539;-74
2022/07/29 02:12:07;;;;;;;;;1.00;0.67;;;;;19.46;68.61;100330.59;5025760;28;45423;-74
2022/07/29 02:14:40;;;;;;;;;2.00;1.00;;;;;19.34;69.54;100321.88;5038046;28;45465;-73
2022/07/29 02:17:06;;;;;;;;;1.00;0.67;;;;;19.28;69.77;100322.84;5037110;28;45452;-74
2022/07/29 02:19:33;;;;;;;;;1.33;1.33;;;;;19.23;69.56;100324.63;5037886;28;46126;-74
2022/07/29 02:22:00;;;;;;;;;2.00;1.33;;;;;18.35;69.57;100163.94;5037498;28;45307;-74
2022/07/29 02:24:28;;;;;;;;;1.67;1.00;;;;;19.05;70.77;100302.72;5033835;28;45436;-74
2022/07/29 02:26:56;;;;;;;;;2.00;1.33;;;;;19.08;70.17;100296.53;5017291;28;45309;-74
2022/07/29 02:29:25;;;;;;;;;1.67;0.67;;;;;19.18;69.42;100299.97;5016973;28;45349;-74
2022/07/29 02:31:52;;;;;;;;;1.00;1.00;;;;;19.12;70.42;100290.31;5017325;28;45741;-74
2022/07/29 02:34:20;;;;;;;;;1.67;1.67;;;;;19.02;70.21;100300.13;5021033;28;45485;-73
2022/07/29 02:36:47;;;;;;;;;1.33;1.33;;;;;18.87;69.69;100285.22;5029598;28;45382;-73
2022/07/29 02:39:15;;;;;;;;;1.33;1.33;;;;;19.11;69.72;100309.75;5035012;28;45412;-74
2022/07/29 02:41:50;;;;;;;;;2.00;1.67;;;;;19.18;69.34;100311.44;5029711;28;45731;-74
2022/07/29 02:44:18;;;;;;;;;0.67;0.67;;;;;19.03;69.37;100275.38;5028818;28;45508;-73
2022/07/29 02:46:55;;;;;;;;;1.00;1.00;;;;;19.14;68.98;100299.13;5036903;28;45425;-74
2022/07/29 02:49:21;;;;;;;;;1.00;1.00;;;;;19.30;68.77;100325.44;5021115;28;45544;-74
2022/07/29 02:52:00;;;;;;;;;1.00;1.00;;;;;19.32;68.91;100323.66;5036098;28;45528;-73
2022/07/29 02:54:41;;;;;;;;;4.00;2.00;;;;;19.30;68.94;100312.22;5023202;28;45489;-74
2022/07/29 02:57:18;;;;;;;;;1.00;1.00;;;;;19.32;69.05;100310.41;5032889;28;45538;-74
2022/07/29 02:59:47;;;;;;;;;1.00;1.00;;;;;19.18;69.37;100306.16;5016981;28;45539;-74
2022/07/29 03:02:16;;;;;;;;;1.00;1.00;;;;;19.28;69.55;100326.34;5017016;28;45368;-73
2022/07/29 03:04:43;;;;;;;;;1.00;1.00;;;;;19.26;70.02;100314.03;5018537;28;45418;-74
2022/07/29 03:07:12;;;;;;;;;2.00;1.67;;;;;19.17;69.79;100300.88;5036446;28;45449;-73
2022/07/29 03:09:40;;;;;;;;;2.00;2.00;;;;;19.22;69.97;100320.25;5025440;28;46158;-74
2022/07/29 03:12:06;;;;;;;;;1.00;1.00;;;;;19.21;70.41;100321.13;5016935;28;45334;-73
2022/07/29 03:14:32;;;;;;;;;1.00;1.00;;;;;19.08;70.82;100318.59;5032561;28;45503;-74
2022/07/29 03:16:58;;;;;;;;;1.00;1.00;;;;;19.05;70.83;100315.97;5017089;28;45446;-74
2022/07/29 03:19:24;;;;;;;;;2.33;2.00;;;;;18.81;71.16;100289.69;5026520;28;46185;-74
2022/07/29 03:21:50;;;;;;;;;2.33;1.33;;;;;19.03;70.61;100332.75;5021650;28;45703;-74
2022/07/29 03:24:44;;;;;;;;;1.00;1.00;;;;;19.15;70.20;100322.06;5018714;28;45812;-74
2022/07/29 03:27:10;;;;;;;;;2.00;1.33;;;;;19.05;70.28;100296.56;5018064;28;45651;-74
2022/07/29 03:29:35;;;;;;;;;1.00;1.00;;;;;19.21;70.26;100322.00;5021848;28;45464;-74
2022/07/29 03:32:05;;;;;;;;;0.00;0.00;;;;;19.20;70.71;100319.34;5018372;28;45449;-74
2022/07/29 03:34:31;;;;;;;;;2.00;1.67;;;;;18.94;70.33;100280.78;5029873;28;45455;-74
2022/07/29 03:36:56;;;;;;;;;1.00;1.00;;;;;19.27;70.15;100332.53;5017881;28;45443;-74
2022/07/29 03:39:27;;;;;;;;;1.00;1.00;;;;;19.34;69.72;100335.13;5019567;28;45430;-74
2022/07/29 03:41:58;;;;;;;;;1.00;1.00;;;;;19.37;69.61;100328.03;5035855;28;45645;-74
2022/07/29 03:44:26;;;;;;;;;1.00;1.00;;;;;19.37;69.44;100329.81;5027512;28;45484;-73
2022/07/29 03:46:57;;;;;;;;;1.00;1.00;;;;;19.38;69.51;100334.22;5038790;28;45537;-74
2022/07/29 03:49:26;;;;;;;;;1.00;1.00;;;;;19.22;69.84;100312.31;5038759;28;46065;-74
2022/07/29 03:51:52;;;;;;;;;1.67;1.00;;;;;19.22;70.57;100329.06;5027202;28;45527;-73
2022/07/29 03:54:17;;;;;;;;;2.00;1.00;;;;;19.16;69.96;100323.81;5019445;28;45453;-74
2022/07/29 03:56:47;;;;;;;;;2.00;1.00;;;;;19.15;70.20;100321.19;5020134;28;45473;-74
2022/07/29 03:59:15;;;;;;;;;1.00;1.00;;;;;19.19;70.42;100320.25;5019154;28;45505;-74
2022/07/29 04:01:41;;;;;;;;;1.33;1.33;;;;;19.22;70.11;100317.59;5019586;28;45532;-74
2022/07/29 04:04:07;;;;;;;;;1.00;1.00;;;;;19.22;70.53;100310.53;5023227;28;45451;-74
2022/07/29 04:06:44;;;;;;;;;1.00;1.00;;;;;19.22;70.49;100313.19;5025728;28;45616;-74
2022/07/29 04:09:10;;;;;;;;;2.00;2.00;;;;;19.28;70.43;100321.06;5027904;28;45938;-75
2022/07/29 04:11:38;;;;;;;;;1.33;1.00;;;;;19.34;70.30;100319.22;5026304;28;45399;-74
2022/07/29 04:14:03;;;;;;;;;1.00;1.00;;;;;19.38;69.96;100318.34;5036459;28;45481;-73
2022/07/29 04:16:29;;;;;;;;;1.00;1.00;;;;;19.41;69.86;100320.94;5019805;28;45323;-74
2022/07/29 04:18:55;;;;;;;;;0.00;0.00;;;;;19.33;69.68;100294.53;5019162;28;45335;-73
2022/07/29 04:21:20;;;;;;;;;2.00;2.00;;;;;19.38;69.55;100303.31;5019197;28;45501;-74
2022/07/29 04:23:49;;;;;;;;;1.00;1.00;;;;;19.32;70.01;100310.41;5019439;28;45505;-74
2022/07/29 04:26:15;;;;;;;;;2.33;1.00;;;;;19.33;70.36;100315.72;5019387;28;45830;-74
2022/07/29 04:28:42;;;;;;;;;1.67;1.67;;;;;19.38;69.93;100319.22;5020338;28;45373;-74
2022/07/29 04:31:08;;;;;;;;;1.00;1.00;;;;;19.46;69.90;100327.94;5030051;28;45458;-74
2022/07/29 04:33:34;;;;;;;;;1.00;1.00;;;;;19.52;69.47;100331.41;5024601;28;45414;-73
2022/07/29 04:35:59;;;;;;;;;1.00;1.00;;;;;19.55;70.05;100332.25;5034915;28;45202;-74
2022/07/29 04:38:25;;;;;;;;;3.00;1.67;;;;;19.52;70.01;100331.41;5024980;28;45620;-74
2022/07/29 04:40:50;;;;;;;;;1.00;1.00;;;;;19.47;70.07;100350.88;5028000;28;45433;-73
2022/07/29 04:43:16;;;;;;;;;11.33;9.33;;;;;19.55;69.74;100340.22;5021766;28;45564;-74
2022/07/29 04:45:41;;;;;;;;;1.00;1.00;;;;;19.58;69.38;100350.78;5034194;28;45566;-73
2022/07/29 04:48:07;;;;;;;;;1.00;1.00;;;;;19.61;69.54;100355.19;5018811;28;46325;-74
2022/07/29 04:50:32;;;;;;;;;2.00;2.00;;;;;19.56;70.07;100349.94;5021034;28;45434;-73
2022/07/29 04:52:58;;;;;;;;;1.67;1.67;;;;;19.59;69.59;100349.88;5017826;28;45487;-73
2022/07/29 04:55:24;;;;;;;;;2.00;2.00;;;;;19.66;69.78;100359.53;5019567;28;45371;-71
2022/07/29 04:57:50;;;;;;;;;1.00;1.00;;;;;19.65;69.95;100365.72;5028080;28;45947;-73
2022/07/29 05:00:15;;;;;;;;;1.00;1.00;;;;;19.56;70.11;100359.66;5025880;28;45527;-74
2022/07/29 05:02:41;;;;;;;;;1.67;1.67;;;;;19.46;70.42;100364.16;5030723;28;45568;-73
2022/07/29 05:05:07;;;;;;;;;1.00;1.00;;;;;19.39;70.43;100367.75;5028247;28;45559;-73
2022/07/29 05:07:33;;;;;;;;;1.00;1.00;;;;;19.18;70.39;100359.13;5030520;28;45200;-75
2022/07/29 05:09:59;;;;;;;;;2.00;2.00;;;;;19.26;70.84;100373.16;5027160;28;45481;-74
2022/07/29 05:12:25;;;;;;;;;1.00;1.00;;;;;19.22;70.96;100382.03;5029275;28;45395;-73
2022/07/29 05:14:51;;;;;;;;;1.00;1.00;;;;;19.23;70.81;100385.53;5028645;28;46101;-74
2022/07/29 05:17:16;;;;;;;;;3.00;2.00;;;;;19.26;70.50;100378.47;5027454;28;45686;-74
2022/07/29 05:19:42;;;;;;;;;2.67;2.67;;;;;19.29;70.21;100382.84;5031203;28;45413;-74
2022/07/29 05:22:08;;;;;;;;;1.33;1.33;;;;;19.31;70.27;100383.72;5027118;28;45486;-74
2022/07/29 05:24:33;;;;;;;;;1.33;1.33;;;;;19.26;70.30;100367.88;5028704;28;45510;-74
2022/07/29 05:26:59;;;;;;;;;2.00;2.00;;;;;19.29;70.56;100374.91;5025129;28;46021;-74
2022/07/29 05:29:24;;;;;;;;;1.33;1.33;;;;;19.36;70.21;100388.97;5029831;28;45500;-74
2022/07/29 05:31:51;;;;;;;;;2.00;2.00;;;;;19.30;70.03;100355.47;5027955;28;45470;-74
2022/07/29 05:34:17;;;;;;;;;2.00;1.00;;;;;19.54;70.29;100388.81;5028204;28;45335;-74
2022/07/29 05:36:42;;;;;;;;;3.00;2.00;;;;;19.53;70.77;100392.34;5026015;28;45755;-74
2022/07/29 05:39:08;;;;;;;;;3.33;2.00;;;;;19.57;70.59;100390.53;5027464;28;45525;-74
2022/07/29 05:41:33;;;;;;;;;2.00;1.67;;;;;19.55;70.45;100379.97;5028808;28;45316;-74
2022/07/29 05:43:59;;;;;;;;;2.00;2.00;;;;;19.48;70.70;100359.72;5026942;28;45269;-73
2022/07/29 05:46:24;;;;;;;;;1.33;1.33;;;;;19.73;71.17;100400.13;5027331;28;45604;-73
2022/07/29 05:48:50;;;;;;;;;2.33;2.00;;;;;19.46;71.80;100358.88;5027575;28;45434;-72
2022/07/29 05:51:16;;;;;;;;;2.00;2.00;;;;;19.56;71.14;100371.13;5026124;28;45449;-74
2022/07/29 05:53:41;;;;;;;;;2.00;2.00;;;;;19.75;70.72;100395.69;5028381;28;45538;-74
2022/07/29 05:56:07;;;;;;;;;2.67;2.00;;;;;19.79;70.62;100394.75;5027553;28;46057;-74
2022/07/29 05:58:33;;;;;;;;;2.00;2.00;;;;;19.76;70.95;100386.00;5034178;28;45993;-73
2022/07/29 06:00:59;;;;;;;;;2.00;1.33;;;;;19.67;70.56;100377.19;5032739;28;45330;-73
2022/07/29 06:03:25;;;;;;;;;2.00;2.00;;;;;19.86;70.59;100404.44;5035061;28;45619;-74
2022/07/29 06:05:51;;;;;;;;;6.00;5.33;;;;;19.69;70.44;100379.81;5031523;28;46054;-73
2022/07/29 06:08:17;;;;;;;;;33.50;24.75;;;;;19.75;70.35;100386.88;5031461;28;46000;-73
2022/07/29 06:10:43;;;;;;;;;57.75;44.50;;;;;19.87;70.54;100407.94;5034078;28;45689;-73
2022/07/29 06:13:09;;;;;;;;;65.75;51.25;;;;;19.89;70.25;100414.09;5030266;28;45429;-73
2022/07/29 06:15:35;;;;;;;;;59.00;47.25;;;;;19.92;69.91;100415.88;5027621;28;45461;-73
2022/07/29 06:18:00;;;;;;;;;59.75;45.50;;;;;19.92;70.02;100419.41;5032274;28;45508;-78
2022/07/29 06:20:29;;;;;;;;;44.50;35.25;;;;;19.96;69.79;100425.56;5031505;28;45514;-74
2022/07/29 06:22:54;;;;;;;;;40.25;33.25;;;;;19.96;69.88;100412.28;5024685;28;45435;-73
2022/07/29 06:25:20;;;;;;;;;33.67;28.00;;;;;19.84;70.21;100392.97;5019555;28;45324;-73
2022/07/29 06:27:45;;;;;;;;;18.67;16.00;;;;;19.88;71.10;100420.31;5032278;28;45431;-73
2022/07/29 06:30:11;;;;;;;;;15.67;13.00;;;;;19.79;71.58;100426.56;5032205;28;45604;-73
2022/07/29 06:32:37;;;;;;;;;15.00;13.00;;;;;19.83;70.92;100428.28;5017259;28;45462;-73
2022/07/29 06:35:03;;;;;;;;;13.00;11.33;;;;;19.89;70.80;100431.78;5017610;28;46088;-73
2022/07/29 06:37:29;;;;;;;;;7.67;6.00;;;;;19.80;70.26;100401.84;5016947;28;45387;-73
2022/07/29 06:42:42;;;;;;;;;12.67;10.33;;;;;20.12;70.28;100436.88;5017455;28;45299;-73
2022/07/29 06:45:09;;;;;;;;;9.33;8.00;;;;;20.21;69.97;100439.41;5016909;28;45595;-74
2022/07/29 06:47:34;;;;;;;;;14.00;12.33;;;;;20.26;69.91;100438.44;5024047;28;45460;-74
2022/07/29 06:50:00;;;;;;;;;9.00;7.00;;;;;20.31;69.33;100442.81;5022769;28;45405;-74
2022/07/29 06:52:25;;;;;;;;;7.67;6.33;;;;;20.29;69.42;100442.84;5034742;28;45983;-74
2022/07/29 06:54:51;;;;;;;;;8.00;5.67;;;;;20.34;68.94;100445.47;5018088;28;45651;-73
2022/07/29 06:57:16;;;;;;;;;7.33;6.33;;;;;20.34;69.15;100438.38;5016562;28;45227;-71
2022/07/29 06:59:42;;;;;;;;;11.67;8.33;;;;;20.27;69.20;100424.31;5021699;28;45311;-74
2022/07/29 07:02:08;;;;;;;;;8.33;6.33;;;;;20.35;69.39;100448.09;5032063;28;45419;-76
2022/07/29 07:04:33;;;;;;;;;6.67;6.00;;;;;20.34;68.71;100434.84;5034303;28;45589;-75
2022/07/29 07:07:00;;;;;;;;;5.33;4.67;;;;;20.47;68.80;100455.00;5030180;28;45517;-75
2022/07/29 07:09:25;;;;;;;;;6.00;4.00;;;;;20.51;68.45;100454.06;5032906;28;45582;-75
2022/07/29 07:11:51;;;;;;;;;6.00;4.33;;;;;20.46;68.75;100435.56;5025431;28;45530;-74
2022/07/29 07:14:16;;;;;;;;;5.00;4.00;;;;;20.63;68.87;100461.94;5025102;28;46203;-74
2022/07/29 07:16:42;;;;;;;;;7.67;6.00;;;;;20.30;69.73;100449.03;5034748;28;45354;-75
2022/07/29 07:19:08;;;;;;;;;6.00;5.67;;;;;20.28;70.85;100472.94;5034565;28;45382;-73
2022/07/29 07:21:33;;;;;;;;;5.00;4.00;;;;;20.33;70.17;100481.69;5034973;28;45599;-75
2022/07/29 07:23:59;;;;;;;;;4.67;3.00;;;;;20.32;70.12;100481.75;5031219;28;45449;-74
2022/07/29 07:26:26;;;;;;;;;3.67;3.00;;;;;20.28;70.71;100478.22;5031794;28;45656;-74
2022/07/29 07:28:52;;;;;;;;;2.67;2.67;;;;;20.31;70.89;100480.84;5034423;28;45780;-73
2022/07/29 07:31:18;;;;;;;;;2.00;2.00;;;;;20.40;69.99;100486.03;5035045;28;45549;-73
2022/07/29 07:33:44;;;;;;;;;2.67;2.33;;;;;20.52;69.21;100482.38;5034562;28;45882;-74
2022/07/29 07:36:09;;;;;;;;;5.67;5.00;;;;;20.57;69.53;100490.28;5035480;28;45518;-74
2022/07/29 07:38:35;;;;;;;;;4.00;4.00;;;;;20.62;69.05;100489.34;5035296;28;45239;-74
2022/07/29 07:41:01;;;;;;;;;6.00;3.00;;;;;20.69;68.91;100487.53;5034920;28;45554;-74
2022/07/29 07:43:27;;;;;;;;;3.33;3.00;;;;;20.79;69.03;100490.91;5034595;28;45468;-73
2022/07/29 07:45:52;;;;;;;;;3.00;2.33;;;;;20.77;68.33;100479.44;5035027;28;45508;-74
2022/07/29 07:48:18;;;;;;;;;3.00;3.00;;;;;20.88;68.87;100495.25;5035562;28;45476;-73
2022/07/29 07:50:44;;;;;;;;;5.00;5.00;;;;;20.88;68.95;100496.13;5035757;28;45478;-74
2022/07/29 07:53:09;;;;;;;;;1.00;1.00;;;;;20.92;68.56;100496.97;5035738;28;45350;-74
2022/07/29 07:55:40;;;;;;;;;6.00;6.00;;;;;20.71;68.47;100471.56;5032345;28;45663;-73
2022/07/29 07:58:06;;;;;;;;;2.00;2.00;;;;;20.49;67.56;100415.19;5036124;28;45402;-73
2022/07/29 08:00:32;;;;;;;;;5.00;4.33;;;;;20.73;67.85;100438.81;5034807;28;45522;-73
2022/07/29 08:02:58;;;;;;;;;5.00;5.00;;;;;19.54;67.58;100234.28;5036176;28;45422;-74
2022/07/29 08:05:23;;;;;;;;;4.00;3.00;;;;;21.32;67.02;100507.00;5036280;28;45535;-74
2022/07/29 08:07:49;;;;;;;;;6.00;6.00;;;;;21.35;67.16;100510.50;5021163;28;45565;-74
2022/07/29 08:10:51;;;;;;;;;3.00;3.00;;;;;21.13;67.29;100462.13;5015167;28;45561;-74
2022/07/29 08:13:05;;;;;;;;;2.00;2.00;;;;;19.19;66.56;100122.53;5015101;28;46462;-74
2022/07/29 08:15:30;;;;;;;;;3.33;2.00;;;;;19.91;66.41;100234.69;5063433;28;45822;-75
2022/07/29 08:17:56;;;;;;;;;2.67;2.33;;;;;20.13;66.27;100277.72;5015977;28;47054;-74
2022/07/29 08:20:21;;;;;;;;;2.00;2.00;;;;;21.63;66.33;100502.13;5015794;28;45595;-74
2022/07/29 08:22:47;;;;;;;;;2.00;1.33;;;;;21.77;65.81;100504.56;5016747;28;45469;-74
2022/07/29 08:25:12;;;;;;;;;2.67;2.00;;;;;21.85;65.89;100500.00;5023784;28;45446;-74
2022/07/29 08:27:38;;;;;;;;;2.33;2.33;;;;;21.81;65.34;100487.66;5024357;28;45315;-75
2022/07/29 08:30:04;;;;;;;;;3.00;2.00;;;;;21.42;65.19;100423.59;5033191;28;45468;-74
2022/07/29 08:32:31;;;;;;;;;2.67;2.33;;;;;21.99;64.78;100497.97;5018797;28;45524;-75
2022/07/29 08:34:56;;;;;;;;;8.00;7.67;;;;;22.00;64.64;100488.19;5018173;28;45624;-73
2022/07/29 08:37:22;;;;;;;;;5.00;5.00;;;;;22.07;64.25;100497.84;5018392;28;45481;-73
2022/07/29 08:39:49;;;;;;;;;4.00;3.33;;;;;21.80;64.45;100446.00;5018332;28;46980;-73
2022/07/29 08:42:17;;;;;;;;;7.67;7.00;;;;;22.07;64.12;100481.00;5019553;28;46416;-73
2022/07/29 08:44:43;;;;;;;;;5.00;4.00;;;;;21.81;64.00;100461.06;5033318;28;45437;-73
2022/07/29 08:47:10;;;;;;;;;5.00;4.33;;;;;21.85;64.02;100484.91;5019997;28;45516;-73
2022/07/29 08:49:35;;;;;;;;;5.33;3.00;;;;;22.01;64.52;100488.19;5025487;28;45318;-74
2022/07/29 08:52:01;;;;;;;;;13.00;12.00;;;;;22.21;64.20;100495.78;5018101;28;45587;-74
2022/07/29 08:54:29;;;;;;;;;4.00;3.00;;;;;22.29;63.17;100495.69;5017985;28;45337;-74
2022/07/29 08:56:55;;;;;;;;;5.00;3.00;;;;;22.28;62.81;100501.03;5018619;28;45451;-74
2022/07/29 08:59:24;;;;;;;;;10.00;9.00;;;;;22.33;63.29;100502.69;5031967;28;45804;-74
2022/07/29 09:01:53;;;;;;;;;4.00;4.00;;;;;22.48;63.24;100497.97;5020233;28;45441;-74
2022/07/29 09:04:20;;;;;;;;;3.00;3.00;;;;;22.44;62.54;100465.22;5024112;28;45311;-74
2022/07/29 09:06:48;;;;;;;;;3.67;3.00;;;;;22.24;61.89;100415.06;5030646;28;45486;-74
2022/07/29 09:09:14;;;;;;;;;5.00;5.00;;;;;22.81;62.09;100501.72;5020974;28;45413;-74
2022/07/29 09:11:42;;;;;;;;;5.00;4.67;;;;;22.42;61.21;100421.78;5017172;28;45655;-74
2022/07/29 09:14:10;;;;;;;;;4.33;3.67;;;;;22.69;61.42;100460.25;5016985;28;45410;-74
2022/07/29 09:16:52;;;;;;;;;5.00;4.00;;;;;23.12;61.21;100512.66;5017308;28;45437;-74
2022/07/29 09:19:35;;;;;;;;;3.33;3.00;;;;;23.19;60.84;100514.22;5017805;28;45437;-74
2022/07/29 09:22:04;;;;;;;;;4.00;4.00;;;;;23.28;60.91;100512.28;5017446;28;46210;-74
2022/07/29 09:24:34;;;;;;;;;3.00;3.00;;;;;23.40;60.16;100512.88;5017316;28;45232;-74
2022/07/29 09:26:59;;;;;;;;;4.33;4.00;;;;;23.44;60.10;100521.69;5017109;28;45453;-74
2022/07/29 09:29:27;;;;;;;;;4.00;4.00;;;;;23.41;59.32;100514.63;5017299;28;45442;-74
2022/07/29 09:31:54;;;;;;;;;3.33;3.33;;;;;23.36;59.84;100526.31;5016974;28;45401;-74
2022/07/29 09:34:29;;;;;;;;;5.00;4.00;;;;;23.39;58.94;100503.13;5016274;28;45482;-74
2022/07/29 09:36:55;;;;;;;;;4.00;4.00;;;;;23.59;59.45;100528.44;5017124;28;45402;-75
2022/07/29 09:39:31;;;;;;;;;3.00;3.00;;;;;23.71;58.73;100514.78;5017653;28;45571;-74
2022/07/29 09:42:00;;;;;;;;;5.67;5.67;;;;;23.91;57.87;100530.31;5029907;28;46176;-73
2022/07/29 09:44:26;;;;;;;;;4.00;4.00;;;;;24.06;56.49;100533.53;5033681;28;45457;-74
2022/07/29 09:46:56;;;;;;;;;3.00;3.00;;;;;24.03;56.28;100481.09;5018983;28;45269;-74
2022/07/29 09:49:22;;;;;;;;;4.67;4.00;;;;;24.32;55.92;100520.38;5032735;28;45533;-74
2022/07/29 09:51:47;;;;;;;;;4.33;4.33;;;;;24.51;55.67;100520.78;5017634;28;45654;-74
2022/07/29 09:54:26;;;;;;;;;3.00;3.00;;;;;24.75;55.79;100526.31;5032884;28;46250;-74
2022/07/29 09:56:52;;;;;;;;;2.67;2.67;;;;;24.77;55.04;100495.97;5036561;28;45519;-75
2022/07/29 09:59:26;;;;;;;;;3.33;3.00;;;;;25.00;54.41;100508.63;5037069;28;45395;-74
2022/07/29 10:01:52;;;;;;;;;6.33;6.00;;;;;24.88;54.07;100465.38;5018592;28;46135;-74
2022/07/29 10:04:19;;;;;;;;;3.67;3.00;;;;;25.37;52.34;100506.66;5022656;28;45479;-74
2022/07/29 10:06:59;;;;;;;;;3.00;3.00;;;;;25.67;52.01;100523.50;5027328;28;45790;-74
2022/07/29 10:09:26;;;;;;;;;3.00;2.00;;;;;25.97;51.67;100516.28;5032273;28;45387;-74
2022/07/29 10:12:10;;;;;;;;;2.33;2.33;;;;;26.37;51.00;100509.50;5016359;28;45508;-74
2022/07/29 10:14:38;;;;;;;;;4.00;3.33;;;;;26.87;49.61;100513.97;5016051;28;45519;-75
2022/07/29 10:17:05;;;;;;;;;2.00;2.00;;;;;27.27;48.64;100522.28;5016460;28;45956;-74
2022/07/29 10:19:31;;;;;;;;;5.00;4.67;;;;;27.38;47.03;100477.16;5016198;28;45869;-74
2022/07/29 10:21:58;;;;;;;;;2.67;2.67;;;;;27.95;45.80;100523.09;5016269;28;45363;-74
2022/07/29 10:24:26;;;;;;;;;1.33;1.00;;;;;28.10;46.83;100489.34;5026111;28;45315;-74
2022/07/29 10:26:55;;;;;;;;;5.33;5.33;;;;;28.45;44.43;100517.34;5033545;28;45396;-74
2022/07/29 10:29:21;;;;;;;;;3.00;2.67;;;;;28.67;45.04;100495.78;5027181;28;45317;-74
2022/07/29 10:32:19;;;;;;;;;2.67;2.00;;;;;29.31;44.58;100521.47;5022690;28;45359;-74
2022/07/29 10:35:01;;;;;;;;;4.00;3.00;;;;;29.68;42.80;100502.59;5016509;28;45501;-74
2022/07/29 10:37:27;;;;;;;;;1.33;1.00;;;;;30.02;41.32;100531.41;5031180;28;45355;-74
2022/07/29 10:43:17;;;;;;;;;2.67;2.00;;;;;30.80;40.66;100528.25;5026878;28;45666;-74
2022/07/29 10:45:45;;;;;;;;;1.00;1.00;;;;;31.20;41.14;100534.19;5047366;28;45456;-73
2022/07/29 10:48:11;;;;;;;;;0.00;0.00;;;;;31.42;39.03;100531.13;5016532;28;45382;-74
2022/07/29 10:51:00;;;;;;;;;2.00;2.00;;;;;31.26;39.94;100472.63;5016545;28;45405;-73
2022/07/29 10:53:52;;;;;;;;;1.00;1.00;;;;;31.68;38.62;100546.72;5016023;28;45594;-74
2022/07/29 10:56:30;;;;;;;;;2.00;2.00;;;;;31.91;38.33;100545.38;5016514;28;45416;-74
2022/07/29 10:59:20;;;;;;;;;1.67;1.00;;;;;31.97;37.89;100544.13;5015967;28;45638;-73
2022/07/29 11:01:53;;;;;;;;;2.00;2.00;;;;;31.94;38.02;100555.13;5022036;28;45486;-75
2022/07/29 11:04:43;;;;;;;;;2.00;1.33;;;;;31.86;37.54;100549.31;5024404;28;45419;-76
2022/07/29 11:07:10;;;;;;;;;3.00;3.00;;;;;31.87;37.65;100556.44;5015953;28;45232;-75
2022/07/29 11:09:35;;;;;;;;;2.00;2.00;;;;;31.73;37.36;100554.53;5015817;28;45529;-73
2022/07/29 11:12:01;;;;;;;;;1.00;1.00;;;;;31.16;36.12;100551.47;5016276;28;45192;-73
2022/07/29 11:14:51;;;;;;;;;3.00;3.00;;;;;31.21;37.86;100557.50;5015596;28;45665;-73
2022/07/29 11:17:17;;;;;;;;;2.33;2.33;;;;;31.44;37.56;100561.59;5016391;28;45418;-74
2022/07/29 11:19:44;;;;;;;;;2.00;2.00;;;;;31.42;36.49;100548.19;5016379;28;45534;-74
2022/07/29 11:22:11;;;;;;;;;3.00;3.00;;;;;30.82;36.10;100475.09;5016962;28;45500;-75
2022/07/29 11:24:37;;;;;;;;;3.00;2.00;;;;;31.10;37.23;100563.50;5016302;28;45254;-75
2022/07/29 11:27:09;;;;;;;;;4.33;4.00;;;;;31.08;38.16;100557.31;5016554;28;45540;-74
2022/07/29 11:29:40;;;;;;;;;1.00;1.00;;;;;30.85;37.66;100518.94;5016437;28;45250;-75
2022/07/29 11:32:11;;;;;;;;;2.00;1.67;;;;;31.01;36.78;100551.38;5015549;28;45614;-74
2022/07/29 11:34:40;;;;;;;;;4.00;4.00;;;;;30.30;37.08;100512.03;5016146;28;46188;-75
2022/07/29 11:37:09;;;;;;;;;2.00;2.00;;;;;30.40;37.48;100562.75;5016298;28;45623;-76
2022/07/29 11:39:36;;;;;;;;;1.00;1.00;;;;;30.05;36.78;100515.09;5016625;28;45480;-76